EDT,Max TemperatureF,Mean TemperatureF,Min TemperatureF,Max Dew PointF,MeanDew PointF,Min DewpointF,Max Humidity, Mean Humidity, Min Humidity, Max Sea Level PressureIn, Mean Sea Level PressureIn, Min Sea Level PressureIn, Max VisibilityMiles, Mean VisibilityMiles, Min VisibilityMiles, Max Wind SpeedMPH, Mean Wind SpeedMPH, Max Gust SpeedMPH,PrecipitationIn, CloudCover, Events, WindDirDegrees
2012-6-1,73,64,57,59,54,49,90,69,55,30.03,29.95,29.78,10,10,6,17,5,22,0.05,3,Rain,102
2012-6-2,75,66,57,65,58,45,94,77,40,29.80,29.72,29.66,10,8,2,17,10,30,0.69,6,Rain,152
2012-6-3,75,64,53,59,52,45,86,67,34,29.79,29.73,29.66,10,9,2,12,3,31,0.12,2,Rain,286
2012-6-4,63,58,53,55,51,47,94,81,58,29.84,29.70,29.62,10,9,2,12,3,17,0.45,7,Rain,59
2012-6-5,66,56,48,55,48,42,100,73,45,29.98,29.91,29.83,10,9,1,9,3,,0.08,6,Rain,37
2012-6-6,73,62,51,57,52,45,100,84,42,30.02,29.98,29.94,10,4,0,10,0,17,0.06,6,Fog-Rain,217
2012-6-7,80,66,55,56,52,45,94,66,31,30.01,29.97,29.92,10,10,9,12,2,,0.00,3,,303
2012-6-8,84,68,53,56,52,45,96,60,26,29.97,29.91,29.84,10,10,10,9,2,16,0.00,1,,305
2012-6-9,81,71,62,59,56,53,75,61,43,30.00,29.93,29.89,10,10,10,9,1,,0.00,3,Rain,273
2012-6-10,86,74,64,66,63,60,90,73,46,30.21,30.09,30.00,10,9,4,13,1,18,0.08,4,Rain,136
2012-6-11,77,70,64,63,57,47,90,67,38,30.27,30.23,30.19,10,9,4,16,4,22,0.00,5,,139
2012-6-12,73,70,66,66,64,59,94,86,71,30.18,30.01,29.91,10,6,2,14,5,22,0.58,8,Rain,166
2012-6-13,77,70,64,64,61,54,94,80,48,30.09,29.96,29.88,10,8,2,12,5,23,0.20,6,Rain,57
2012-6-14,78,68,60,61,58,54,93,72,53,30.27,30.19,30.08,10,10,8,10,3,18,0.00,3,,77
2012-6-15,81,69,59,60,55,48,94,66,40,30.32,30.29,30.25,10,9,6,13,1,,0.00,3,,86
2012-6-16,80,67,55,56,53,50,93,64,36,30.36,30.30,30.25,10,10,10,13,2,,0.00,1,,144
2012-6-17,73,65,55,57,55,52,87,70,57,30.26,30.20,30.11,10,10,8,12,3,16,0.00,6,,145
2012-6-18,72,62,53,56,53,50,93,71,51,30.18,30.14,30.11,10,10,8,9,2,,0.00,4,,156
2012-6-19,79,70,62,66,61,55,81,71,61,30.19,30.14,30.08,10,10,9,6,1,,0.00,6,,248
2012-6-20,97,83,69,71,68,66,93,63,38,30.10,30.03,29.95,10,9,5,10,2,,0.00,0,,297
2012-6-21,97,85,73,70,67,64,85,55,34,29.97,29.89,29.79,10,10,6,12,2,,0.00,0,,305
2012-6-22,93,81,71,71,69,66,94,71,44,29.84,29.81,29.75,9,7,1,20,2,28,0.09,1,Rain,205
2012-6-23,84,75,66,68,57,50,90,57,31,30.01,29.91,29.83,10,10,5,13,2,18,0.00,1,,318
2012-6-24,86,72,59,62,55,48,90,54,28,30.04,29.99,29.91,10,10,10,7,1,,0.00,1,,268
2012-6-25,79,70,63,66,59,46,88,70,40,29.89,29.76,29.68,10,9,2,8,2,17,0.12,5,Rain,39
2012-6-26,75,66,57,50,47,44,62,50,35,29.81,29.75,29.73,10,10,10,16,9,30,0.00,4,,317
2012-6-27,84,70,59,52,47,44,67,45,25,29.86,29.78,29.75,10,10,10,16,5,28,0.00,0,,300
2012-6-28,91,76,62,62,55,52,72,50,30,29.87,29.80,29.73,10,10,10,12,3,16,0.00,1,,277
2012-6-29,97,83,69,69,66,60,93,60,35,29.74,29.69,29.64,10,9,2,12,3,16,0.09,2,Rain,290
2012-6-30,95,84,72,69,61,53,73,49,25,29.81,29.76,29.70,10,10,10,14,3,21,0.00,0,,283